Time;durP1;ratioP1;P1;durP2;ratioP2;P2;SDS_P1;SDS_P2;PMS_P1;PMS_P2;Temp;Humidity;BMP_temperature;BMP_pressure;BME280_temperature;BME280_humidity;BME280_pressure;Samples;Min_cycle;Max_cycle;Signal;HPM_P1;HPM_P2
2020/12/17 00:01:15;;;;;;;;;;;20.70;39.60;;;;;;491612;240;931;-71
2020/12/17 00:03:17;;;;;;;;;;;20.70;39.50;;;;;;491655;240;1068;-71
2020/12/17 00:05:18;;;;;;;;;;;20.70;39.50;;;;;;491673;240;1003;-71
2020/12/17 00:07:19;;;;;;;;;;;20.70;39.40;;;;;;491637;240;1072;-71
2020/12/17 00:09:21;;;;;;;;;;;20.70;39.10;;;;;;491666;240;1198;-71
2020/12/17 00:11:22;;;;;;;;;;;20.60;39.20;;;;;;491644;240;1169;-71
2020/12/17 00:13:23;;;;;;;;;;;20.60;39.90;;;;;;491554;240;1066;-71
2020/12/17 00:15:24;;;;;;;;;;;20.60;39.80;;;;;;491562;240;1008;-71
2020/12/17 00:17:26;;;;;;;;;;;20.60;39.60;;;;;;491552;240;2176;-71
2020/12/17 00:19:27;;;;;;;;;;;20.60;39.80;;;;;;491665;240;963;-71
2020/12/17 00:21:28;;;;;;;;;;;20.60;39.70;;;;;;491585;240;937;-71
2020/12/17 00:23:29;;;;;;;;;;;20.70;39.70;;;;;;491605;240;1050;-71
2020/12/17 00:25:31;;;;;;;;;;;20.60;39.60;;;;;;491648;239;1325;-71
2020/12/17 00:27:32;;;;;;;;;;;20.70;39.60;;;;;;491620;240;1021;-71
2020/12/17 00:29:33;;;;;;;;;;;20.70;39.60;;;;;;491669;240;961;-71
2020/12/17 00:31:35;;;;;;;;;;;20.70;39.60;;;;;;491590;240;961;-70
2020/12/17 00:33:36;;;;;;;;;;;20.60;39.60;;;;;;491603;240;928;-71
2020/12/17 00:35:37;;;;;;;;;;;20.60;39.70;;;;;;491605;240;1042;-71
2020/12/17 00:37:38;;;;;;;;;;;20.50;39.70;;;;;;491576;240;2192;-71
2020/12/17 00:39:40;;;;;;;;;;;20.60;39.80;;;;;;491601;240;919;-71
2020/12/17 00:41:41;;;;;;;;;;;20.50;39.70;;;;;;491666;240;1185;-71
2020/12/17 00:43:42;;;;;;;;;;;20.50;39.70;;;;;;491640;240;977;-71
2020/12/17 00:45:43;;;;;;;;;;;20.60;39.70;;;;;;491618;240;1092;-71
2020/12/17 00:47:45;;;;;;;;;;;20.60;39.60;;;;;;491562;240;1085;-71
2020/12/17 00:49:46;;;;;;;;;;;20.50;39.70;;;;;;491657;240;954;-71
2020/12/17 00:51:47;;;;;;;;;;;20.50;39.80;;;;;;491635;240;1182;-71
2020/12/17 00:53:49;;;;;;;;;;;20.50;39.70;;;;;;491623;240;1070;-71
2020/12/17 00:55:50;;;;;;;;;;;20.50;39.70;;;;;;491559;240;1214;-71
2020/12/17 00:57:51;;;;;;;;;;;20.50;39.60;;;;;;491618;240;2180;-71
2020/12/17 00:59:54;;;;;;;;;;;20.50;39.70;;;;;;491613;240;949;-71
2020/12/17 01:01:55;;;;;;;;;;;20.50;39.60;;;;;;491658;240;1097;-70
2020/12/17 01:03:57;;;;;;;;;;;20.50;39.60;;;;;;491641;240;971;-70
2020/12/17 01:05:58;;;;;;;;;;;20.50;39.50;;;;;;491562;240;1210;-70
2020/12/17 01:07:59;;;;;;;;;;;20.50;39.60;;;;;;491622;240;1062;-71
2020/12/17 01:10:00;;;;;;;;;;;20.40;39.50;;;;;;491595;240;1043;-71
2020/12/17 01:12:02;;;;;;;;;;;20.50;39.50;;;;;;491584;240;1151;-71
2020/12/17 01:14:04;;;;;;;;;;;20.50;39.50;;;;;;491667;240;1115;-70
2020/12/17 01:16:05;;;;;;;;;;;20.50;39.50;;;;;;491639;240;1069;-70
2020/12/17 01:18:06;;;;;;;;;;;20.50;39.50;;;;;;491640;240;2141;-70
2020/12/17 01:20:07;;;;;;;;;;;20.50;39.20;;;;;;491716;240;1034;-70
2020/12/17 01:22:09;;;;;;;;;;;20.50;39.20;;;;;;491641;240;1139;-70
2020/12/17 01:24:10;;;;;;;;;;;20.50;39.50;;;;;;491673;240;971;-71
2020/12/17 01:26:11;;;;;;;;;;;20.50;39.50;;;;;;491658;240;1246;-70
2020/12/17 01:28:13;;;;;;;;;;;20.50;39.60;;;;;;491636;240;950;-71
2020/12/17 01:30:14;;;;;;;;;;;20.50;39.60;;;;;;491631;240;930;-71
2020/12/17 01:32:15;;;;;;;;;;;20.50;39.60;;;;;;491708;240;1155;-71
2020/12/17 01:34:16;;;;;;;;;;;20.50;39.60;;;;;;491664;240;1009;-71
2020/12/17 01:36:18;;;;;;;;;;;20.50;39.60;;;;;;491587;240;1298;-70
2020/12/17 01:38:19;;;;;;;;;;;20.60;39.60;;;;;;491636;240;2171;-71
2020/12/17 01:40:20;;;;;;;;;;;20.60;39.60;;;;;;491607;240;971;-71
2020/12/17 01:42:22;;;;;;;;;;;20.50;39.70;;;;;;491597;240;1180;-71
2020/12/17 01:44:23;;;;;;;;;;;20.50;39.70;;;;;;491623;240;972;-71
2020/12/17 01:46:24;;;;;;;;;;;20.60;39.70;;;;;;491612;240;942;-71
2020/12/17 01:48:26;;;;;;;;;;;20.60;39.60;;;;;;491610;240;1206;-71
2020/12/17 01:50:27;;;;;;;;;;;20.60;39.60;;;;;;491618;240;1316;-71
2020/12/17 01:52:28;;;;;;;;;;;20.70;39.70;;;;;;491618;240;1175;-71
2020/12/17 01:54:29;;;;;;;;;;;20.70;39.60;;;;;;491543;240;985;-71
2020/12/17 01:56:31;;;;;;;;;;;20.70;39.70;;;;;;491553;240;1177;-71
2020/12/17 01:58:32;;;;;;;;;;;20.70;39.70;;;;;;491541;240;2180;-71
2020/12/17 02:00:34;;;;;;;;;;;20.70;39.60;;;;;;491588;240;964;-70
2020/12/17 02:02:35;;;;;;;;;;;20.70;39.60;;;;;;491638;240;1215;-70
2020/12/17 02:04:36;;;;;;;;;;;20.80;39.50;;;;;;491554;240;966;-71
2020/12/17 02:06:37;;;;;;;;;;;20.80;39.50;;;;;;491608;240;1201;-70
2020/12/17 02:08:39;;;;;;;;;;;20.90;39.40;;;;;;491607;240;1082;-71
2020/12/17 02:10:40;;;;;;;;;;;20.90;39.40;;;;;;491581;240;1034;-71
2020/12/17 02:12:41;;;;;;;;;;;20.80;39.50;;;;;;491621;240;1168;-71
2020/12/17 02:14:42;;;;;;;;;;;20.80;39.50;;;;;;491633;240;970;-71
2020/12/17 02:16:44;;;;;;;;;;;20.70;39.60;;;;;;491573;240;1175;-71
2020/12/17 02:18:45;;;;;;;;;;;20.70;39.60;;;;;;491587;240;2133;-71
2020/12/17 02:20:46;;;;;;;;;;;20.70;39.70;;;;;;491642;240;1080;-71
2020/12/17 02:22:48;;;;;;;;;;;20.60;39.70;;;;;;491562;240;1108;-71
2020/12/17 02:24:49;;;;;;;;;;;20.60;39.40;;;;;;491632;240;1081;-71
2020/12/17 02:26:50;;;;;;;;;;;20.60;39.30;;;;;;491560;238;1207;-71
2020/12/17 02:28:51;;;;;;;;;;;20.60;39.80;;;;;;491600;240;950;-71
2020/12/17 02:30:53;;;;;;;;;;;20.60;39.80;;;;;;491559;240;999;-71
2020/12/17 02:32:54;;;;;;;;;;;20.70;39.70;;;;;;491614;240;1102;-71
2020/12/17 02:34:55;;;;;;;;;;;20.70;39.60;;;;;;491625;240;1039;-71
2020/12/17 02:36:57;;;;;;;;;;;20.70;39.50;;;;;;491566;240;1196;-71
2020/12/17 02:38:58;;;;;;;;;;;20.70;39.40;;;;;;491518;240;2191;-71
2020/12/17 02:40:59;;;;;;;;;;;20.70;39.30;;;;;;491565;240;1059;-71
2020/12/17 02:43:01;;;;;;;;;;;20.70;39.40;;;;;;491425;240;1163;-71
2020/12/17 02:45:02;;;;;;;;;;;20.70;39.40;;;;;;491649;240;1061;-71
2020/12/17 02:47:03;;;;;;;;;;;20.70;39.40;;;;;;491718;240;1386;-71
2020/12/17 02:49:04;;;;;;;;;;;20.70;39.40;;;;;;491645;240;1037;-70
2020/12/17 02:51:06;;;;;;;;;;;20.60;39.40;;;;;;491576;240;1076;-71
2020/12/17 02:53:07;;;;;;;;;;;20.70;39.40;;;;;;491624;240;1327;-70
2020/12/17 02:55:08;;;;;;;;;;;20.70;39.40;;;;;;491594;240;1102;-70
2020/12/17 02:57:10;;;;;;;;;;;20.60;39.30;;;;;;491612;240;1299;-71
2020/12/17 02:59:11;;;;;;;;;;;20.70;39.20;;;;;;491711;240;2121;-71
2020/12/17 03:01:12;;;;;;;;;;;20.70;39.10;;;;;;491586;240;1063;-70
2020/12/17 03:03:13;;;;;;;;;;;20.70;39.10;;;;;;491623;240;986;-71
2020/12/17 03:05:15;;;;;;;;;;;20.70;39.30;;;;;;491639;240;1042;-71
2020/12/17 03:07:16;;;;;;;;;;;20.70;39.10;;;;;;491595;240;1227;-71
2020/12/17 03:09:17;;;;;;;;;;;20.70;39.30;;;;;;491656;240;959;-71
2020/12/17 03:11:19;;;;;;;;;;;20.60;39.30;;;;;;491588;240;1033;-70
2020/12/17 03:13:20;;;;;;;;;;;20.70;39.30;;;;;;491634;240;1193;-70
2020/12/17 03:15:21;;;;;;;;;;;20.70;39.30;;;;;;491616;240;1012;-71
2020/12/17 03:17:22;;;;;;;;;;;20.70;39.20;;;;;;491608;240;1100;-71
2020/12/17 03:19:24;;;;;;;;;;;20.70;39.30;;;;;;491602;240;2180;-71
2020/12/17 03:21:25;;;;;;;;;;;20.60;39.30;;;;;;491542;240;1130;-71
2020/12/17 03:23:26;;;;;;;;;;;20.50;39.40;;;;;;491559;240;1040;-71
2020/12/17 03:25:28;;;;;;;;;;;20.50;39.50;;;;;;491591;240;953;-71
2020/12/17 03:27:29;;;;;;;;;;;20.50;39.60;;;;;;491575;240;1220;-71
2020/12/17 03:29:30;;;;;;;;;;;20.40;39.60;;;;;;491603;240;1196;-71
2020/12/17 03:31:31;;;;;;;;;;;20.50;39.60;;;;;;491610;240;1200;-71
2020/12/17 03:33:33;;;;;;;;;;;20.50;39.20;;;;;;491604;240;1086;-70
2020/12/17 03:35:34;;;;;;;;;;;20.50;39.20;;;;;;491648;240;993;-71
2020/12/17 03:37:35;;;;;;;;;;;20.50;39.50;;;;;;491626;240;1251;-70
2020/12/17 03:39:37;;;;;;;;;;;20.50;39.50;;;;;;491620;240;2185;-70
2020/12/17 03:41:38;;;;;;;;;;;20.50;39.40;;;;;;491601;240;1291;-71
2020/12/17 03:43:39;;;;;;;;;;;20.50;39.60;;;;;;491750;240;1133;-71
2020/12/17 03:45:40;;;;;;;;;;;20.50;39.50;;;;;;491731;240;1027;-71
2020/12/17 03:47:42;;;;;;;;;;;20.50;39.50;;;;;;491697;240;1021;-71
2020/12/17 03:49:43;;;;;;;;;;;20.60;39.60;;;;;;491661;240;1065;-71
2020/12/17 03:51:44;;;;;;;;;;;20.50;39.60;;;;;;491701;240;1079;-71
2020/12/17 03:53:46;;;;;;;;;;;20.50;39.60;;;;;;491580;240;981;-71
2020/12/17 03:55:47;;;;;;;;;;;20.60;39.50;;;;;;491622;240;962;-70
2020/12/17 03:57:48;;;;;;;;;;;20.60;39.40;;;;;;491586;238;2160;-71
2020/12/17 03:59:49;;;;;;;;;;;20.60;39.50;;;;;;491616;240;1020;-71
2020/12/17 04:01:51;;;;;;;;;;;20.60;39.50;;;;;;491586;240;952;-71
2020/12/17 04:03:52;;;;;;;;;;;20.60;39.60;;;;;;491675;240;947;-71
2020/12/17 04:05:53;;;;;;;;;;;20.50;39.70;;;;;;491578;240;976;-71
2020/12/17 04:07:54;;;;;;;;;;;20.50;39.80;;;;;;491613;240;941;-71
2020/12/17 04:09:56;;;;;;;;;;;20.50;39.90;;;;;;491655;240;1226;-71
2020/12/17 04:11:57;;;;;;;;;;;20.40;39.90;;;;;;491566;240;1080;-71
2020/12/17 04:13:58;;;;;;;;;;;20.50;39.80;;;;;;491799;240;1172;-71
2020/12/17 04:15:59;;;;;;;;;;;20.60;39.70;;;;;;491521;240;1221;-71
2020/12/17 04:18:01;;;;;;;;;;;20.60;39.70;;;;;;491559;240;2209;-71
2020/12/17 04:20:02;;;;;;;;;;;20.60;39.60;;;;;;491550;240;1196;-71
2020/12/17 04:22:03;;;;;;;;;;;20.60;39.70;;;;;;491551;240;1052;-71
2020/12/17 04:24:05;;;;;;;;;;;20.60;39.70;;;;;;491595;240;1124;-71
2020/12/17 04:26:06;;;;;;;;;;;20.50;39.70;;;;;;491549;240;1179;-71
2020/12/17 04:28:07;;;;;;;;;;;20.60;39.80;;;;;;491590;240;1138;-71
2020/12/17 04:30:09;;;;;;;;;;;20.70;39.70;;;;;;491566;240;1116;-71
2020/12/17 04:32:10;;;;;;;;;;;20.60;39.80;;;;;;491584;240;1072;-70
2020/12/17 04:34:11;;;;;;;;;;;20.60;39.80;;;;;;491605;240;1157;-71
2020/12/17 04:36:12;;;;;;;;;;;20.50;39.10;;;;;;491598;240;1082;-71
2020/12/17 04:38:14;;;;;;;;;;;20.60;39.80;;;;;;491614;240;2147;-70
2020/12/17 04:40:15;;;;;;;;;;;20.50;40.00;;;;;;491607;240;1098;-70
2020/12/17 04:42:16;;;;;;;;;;;20.50;39.90;;;;;;491600;240;1441;-71
2020/12/17 04:44:17;;;;;;;;;;;20.50;40.00;;;;;;491649;240;1148;-71
2020/12/17 04:46:19;;;;;;;;;;;20.60;39.90;;;;;;491618;240;952;-71
2020/12/17 04:48:20;;;;;;;;;;;20.60;39.80;;;;;;491627;240;952;-71
2020/12/17 04:50:21;;;;;;;;;;;20.50;39.80;;;;;;491661;240;1078;-71
2020/12/17 04:52:22;;;;;;;;;;;20.50;39.80;;;;;;491626;240;970;-71
2020/12/17 04:54:24;;;;;;;;;;;20.50;39.70;;;;;;491580;240;1092;-71
2020/12/17 04:56:25;;;;;;;;;;;20.50;39.70;;;;;;491671;240;1040;-71
2020/12/17 04:58:27;;;;;;;;;;;20.50;39.70;;;;;;491596;239;2192;-71
2020/12/17 05:00:28;;;;;;;;;;;20.60;39.50;;;;;;491678;240;1150;-71
2020/12/17 05:02:29;;;;;;;;;;;20.60;39.30;;;;;;491715;240;1058;-71
2020/12/17 05:04:30;;;;;;;;;;;20.60;39.40;;;;;;491623;240;1166;-71
2020/12/17 05:06:32;;;;;;;;;;;20.50;39.30;;;;;;491541;240;973;-71
2020/12/17 05:08:33;;;;;;;;;;;20.40;39.40;;;;;;491612;240;1095;-71
2020/12/17 05:10:34;;;;;;;;;;;20.40;39.60;;;;;;491602;240;957;-71
2020/12/17 05:12:36;;;;;;;;;;;20.40;39.60;;;;;;491548;240;1096;-70
2020/12/17 05:14:37;;;;;;;;;;;20.40;39.50;;;;;;491602;240;1266;-70
2020/12/17 05:16:38;;;;;;;;;;;20.40;39.40;;;;;;491484;240;1133;-70
2020/12/17 05:18:39;;;;;;;;;;;20.40;39.40;;;;;;491572;240;2195;-70
2020/12/17 05:20:41;;;;;;;;;;;20.50;39.30;;;;;;491518;240;944;-70
2020/12/17 05:22:42;;;;;;;;;;;20.50;39.10;;;;;;491513;240;1097;-70
2020/12/17 05:24:44;;;;;;;;;;;20.50;39.20;;;;;;491616;240;969;-70
2020/12/17 05:26:45;;;;;;;;;;;20.60;39.10;;;;;;491599;240;1034;-70
2020/12/17 05:28:46;;;;;;;;;;;20.50;39.10;;;;;;491579;240;1175;-70
2020/12/17 05:30:47;;;;;;;;;;;20.50;39.30;;;;;;491588;240;1513;-70
2020/12/17 05:32:49;;;;;;;;;;;20.50;39.30;;;;;;491601;240;956;-70
2020/12/17 05:34:50;;;;;;;;;;;20.50;39.40;;;;;;491631;240;971;-70
2020/12/17 05:36:51;;;;;;;;;;;20.50;39.40;;;;;;491601;240;948;-71
2020/12/17 05:38:53;;;;;;;;;;;20.50;39.20;;;;;;491520;241;2140;-70
2020/12/17 05:40:54;;;;;;;;;;;20.50;39.20;;;;;;491510;240;1121;-70
2020/12/17 05:42:55;;;;;;;;;;;20.60;39.40;;;;;;491547;240;939;-70
2020/12/17 05:44:57;;;;;;;;;;;20.50;39.40;;;;;;491499;240;1189;-70
2020/12/17 05:46:58;;;;;;;;;;;20.50;38.90;;;;;;491432;240;1117;-70
2020/12/17 05:48:59;;;;;;;;;;;20.50;39.50;;;;;;491494;240;1038;-70
2020/12/17 05:51:01;;;;;;;;;;;20.50;39.90;;;;;;491504;240;1050;-70
2020/12/17 05:53:02;;;;;;;;;;;20.50;39.80;;;;;;491491;240;1104;-70
2020/12/17 05:55:03;;;;;;;;;;;20.50;39.70;;;;;;491511;240;1193;-70
2020/12/17 05:57:05;;;;;;;;;;;20.50;39.70;;;;;;491556;240;1141;-70
2020/12/17 05:59:06;;;;;;;;;;;20.50;39.80;;;;;;491365;240;2195;-70
2020/12/17 06:01:07;;;;;;;;;;;20.50;39.80;;;;;;491235;240;1168;-70
2020/12/17 06:03:08;;;;;;;;;;;20.40;39.80;;;;;;491053;240;1269;-71
2020/12/17 06:05:10;;;;;;;;;;;20.50;39.30;;;;;;491052;240;1201;-70
2020/12/17 06:07:11;;;;;;;;;;;20.40;39.40;;;;;;491060;240;1242;-70
2020/12/17 06:09:12;;;;;;;;;;;20.50;40.00;;;;;;491129;240;1084;-70
2020/12/17 06:11:14;;;;;;;;;;;20.50;39.90;;;;;;491134;240;1150;-71
2020/12/17 06:13:15;;;;;;;;;;;20.40;40.00;;;;;;491173;240;1302;-71
2020/12/17 06:15:16;;;;;;;;;;;20.40;40.00;;;;;;491154;240;1312;-70
2020/12/17 06:17:17;;;;;;;;;;;20.40;40.10;;;;;;491010;240;1108;-70
2020/12/17 06:19:19;;;;;;;;;;;20.40;40.20;;;;;;491045;240;2189;-71
2020/12/17 06:21:20;;;;;;;;;;;20.40;40.00;;;;;;491021;240;1055;-70
2020/12/17 06:23:21;;;;;;;;;;;20.50;39.90;;;;;;491334;240;1361;-69
2020/12/17 06:25:22;;;;;;;;;;;20.50;39.80;;;;;;491466;240;999;-70
2020/12/17 06:27:25;;;;;;;;;;;20.50;39.80;;;;;;491348;240;1072;-70
2020/12/17 06:29:25;;;;;;;;;;;20.50;39.80;;;;;;491355;242;1428;-70
2020/12/17 06:31:26;;;;;;;;;;;20.50;39.70;;;;;;491340;240;1194;-70
2020/12/17 06:33:28;;;;;;;;;;;20.50;39.70;;;;;;491415;240;1002;-70
2020/12/17 06:35:29;;;;;;;;;;;20.50;39.90;;;;;;491334;240;1343;-70
2020/12/17 06:37:31;;;;;;;;;;;20.50;39.70;;;;;;491368;240;1099;-70
2020/12/17 06:39:32;;;;;;;;;;;20.50;39.70;;;;;;491407;240;2191;-70
2020/12/17 06:41:34;;;;;;;;;;;20.50;39.60;;;;;;491247;240;1163;-71
2020/12/17 06:43:36;;;;;;;;;;;20.50;39.60;;;;;;491349;240;1058;-71
2020/12/17 06:45:36;;;;;;;;;;;20.50;39.60;;;;;;491323;240;1265;-70
2020/12/17 06:47:37;;;;;;;;;;;20.60;39.70;;;;;;491406;240;1100;-70
2020/12/17 06:49:42;;;;;;;;;;;20.50;39.70;;;;;;491382;240;932;-70
2020/12/17 06:51:40;;;;;;;;;;;20.50;39.70;;;;;;491382;241;1234;-70
2020/12/17 06:53:41;;;;;;;;;;;20.50;39.70;;;;;;491227;240;1049;-70
2020/12/17 06:55:43;;;;;;;;;;;20.50;39.60;;;;;;491218;240;1025;-70
2020/12/17 06:57:44;;;;;;;;;;;20.50;39.60;;;;;;491251;240;1190;-70
2020/12/17 06:59:46;;;;;;;;;;;20.50;39.20;;;;;;491342;240;2133;-70
2020/12/17 07:01:47;;;;;;;;;;;20.50;39.40;;;;;;491267;241;1322;-70
2020/12/17 07:03:48;;;;;;;;;;;20.50;39.60;;;;;;491190;240;1083;-70
2020/12/17 07:05:49;;;;;;;;;;;20.50;39.70;;;;;;491188;240;1331;-70
2020/12/17 07:07:50;;;;;;;;;;;20.40;39.80;;;;;;491295;240;1161;-70
2020/12/17 07:09:52;;;;;;;;;;;20.40;39.80;;;;;;491240;240;965;-70
2020/12/17 07:11:53;;;;;;;;;;;20.50;39.60;;;;;;491331;240;1187;-70
2020/12/17 07:13:54;;;;;;;;;;;20.50;39.60;;;;;;491338;240;1072;-70
2020/12/17 07:15:55;;;;;;;;;;;20.50;39.60;;;;;;491321;240;1149;-70
2020/12/17 07:17:57;;;;;;;;;;;20.50;39.60;;;;;;491235;240;1087;-70
2020/12/17 07:19:58;;;;;;;;;;;20.40;39.60;;;;;;491020;240;2220;-70
2020/12/17 07:21:59;;;;;;;;;;;20.50;39.60;;;;;;491130;240;1309;-70
2020/12/17 07:24:01;;;;;;;;;;;20.40;39.50;;;;;;491089;240;1028;-70
2020/12/17 07:26:02;;;;;;;;;;;20.50;39.50;;;;;;491115;240;1092;-70
2020/12/17 07:28:03;;;;;;;;;;;20.50;39.60;;;;;;491233;240;1069;-70
2020/12/17 07:30:04;;;;;;;;;;;20.50;39.50;;;;;;491239;240;1009;-70
2020/12/17 07:32:06;;;;;;;;;;;20.40;39.70;;;;;;491119;240;1173;-70
2020/12/17 07:34:07;;;;;;;;;;;20.40;39.60;;;;;;491028;240;1006;-70
2020/12/17 07:36:09;;;;;;;;;;;20.40;39.70;;;;;;491034;240;1203;-70
2020/12/17 07:38:10;;;;;;;;;;;20.30;39.80;;;;;;491009;240;972;-70
2020/12/17 07:40:11;;;;;;;;;;;20.40;39.80;;;;;;491039;240;2180;-71
2020/12/17 07:42:12;;;;;;;;;;;20.50;39.70;;;;;;491116;240;1209;-71
2020/12/17 07:44:14;;;;;;;;;;;20.50;39.60;;;;;;491213;240;1032;-71
2020/12/17 07:46:15;;;;;;;;;;;20.50;39.60;;;;;;491129;240;1145;-71
2020/12/17 07:48:16;;;;;;;;;;;20.50;39.70;;;;;;491200;240;1024;-71
2020/12/17 07:50:17;;;;;;;;;;;20.50;39.80;;;;;;491223;240;1009;-71
2020/12/17 07:52:19;;;;;;;;;;;20.40;39.80;;;;;;491163;240;1217;-70
2020/12/17 07:54:20;;;;;;;;;;;20.50;39.80;;;;;;491148;240;976;-70
2020/12/17 07:56:21;;;;;;;;;;;20.40;39.90;;;;;;490949;240;1354;-70
2020/12/17 07:58:23;;;;;;;;;;;20.40;40.10;;;;;;491094;240;1307;-70
2020/12/17 08:00:24;;;;;;;;;;;20.30;40.10;;;;;;490977;240;2176;-70
2020/12/17 08:02:26;;;;;;;;;;;20.40;39.40;;;;;;490975;240;1158;-70
2020/12/17 08:04:27;;;;;;;;;;;20.50;40.00;;;;;;491117;240;1320;-71
2020/12/17 08:06:28;;;;;;;;;;;20.60;39.90;;;;;;490924;240;1064;-70
2020/12/17 08:08:30;;;;;;;;;;;20.60;39.80;;;;;;491049;240;1112;-70
2020/12/17 08:10:31;;;;;;;;;;;20.60;39.80;;;;;;490682;240;1055;-70
2020/12/17 08:12:32;;;;;;;;;;;20.60;39.90;;;;;;490865;240;1193;-70
2020/12/17 08:14:33;;;;;;;;;;;20.60;39.90;;;;;;490599;240;1096;-70
2020/12/17 08:16:35;;;;;;;;;;;20.60;39.90;;;;;;490612;240;1192;-70
2020/12/17 08:18:36;;;;;;;;;;;20.60;39.90;;;;;;490995;240;1231;-70
2020/12/17 08:20:37;;;;;;;;;;;20.60;39.90;;;;;;490834;240;2157;-70
2020/12/17 08:22:39;;;;;;;;;;;20.60;39.90;;;;;;490877;240;1386;-70
2020/12/17 08:24:40;;;;;;;;;;;20.70;39.90;;;;;;490875;240;1097;-71
2020/12/17 08:26:42;;;;;;;;;;;20.60;39.90;;;;;;490816;240;1102;-70
2020/12/17 08:28:43;;;;;;;;;;;20.50;39.80;;;;;;490837;240;1043;-70
2020/12/17 08:30:44;;;;;;;;;;;20.50;39.90;;;;;;490825;240;1084;-72
2020/12/17 08:32:45;;;;;;;;;;;20.50;40.00;;;;;;490973;240;1218;-71
2020/12/17 08:34:47;;;;;;;;;;;20.40;39.90;;;;;;491108;240;1096;-71
2020/12/17 08:36:48;;;;;;;;;;;20.50;39.80;;;;;;491090;240;991;-70
2020/12/17 08:38:49;;;;;;;;;;;20.60;39.70;;;;;;491081;240;1098;-71
2020/12/17 08:40:50;;;;;;;;;;;20.50;39.50;;;;;;491033;240;2132;-71
2020/12/17 08:42:52;;;;;;;;;;;20.40;39.60;;;;;;490912;240;1114;-71
2020/12/17 08:44:53;;;;;;;;;;;20.40;39.60;;;;;;490719;240;1436;-71
2020/12/17 08:46:54;;;;;;;;;;;20.40;39.60;;;;;;490843;240;1187;-71
2020/12/17 08:48:55;;;;;;;;;;;20.50;39.50;;;;;;490964;240;1162;-71
2020/12/17 08:50:57;;;;;;;;;;;20.60;39.30;;;;;;490955;240;1299;-71
2020/12/17 08:55:30;;;;;;;;;;;20.50;39.30;;;;;;490995;242;1271;-71
2020/12/17 08:57:31;;;;;;;;;;;20.50;39.30;;;;;;490908;240;1091;-71
2020/12/17 08:59:32;;;;;;;;;;;20.50;39.40;;;;;;490824;240;2132;-70
2020/12/17 09:01:34;;;;;;;;;;;20.50;39.40;;;;;;490494;240;1133;-71
2020/12/17 09:03:35;;;;;;;;;;;20.60;38.80;;;;;;490937;240;1086;-70
2020/12/17 09:05:36;;;;;;;;;;;20.60;39.10;;;;;;490989;240;1190;-71
2020/12/17 09:07:40;;;;;;;;;;;20.60;39.30;;;;;;490954;240;1013;-70
2020/12/17 09:09:39;;;;;;;;;;;20.50;39.40;;;;;;490882;242;1419;-71
2020/12/17 09:11:40;;;;;;;;;;;20.50;39.50;;;;;;490514;240;1173;-71
2020/12/17 09:13:41;;;;;;;;;;;20.50;39.60;;;;;;490840;240;1041;-71
2020/12/17 09:15:43;;;;;;;;;;;20.50;39.60;;;;;;490794;240;1187;-71
2020/12/17 09:17:44;;;;;;;;;;;20.40;39.70;;;;;;491045;240;1499;-71
2020/12/17 09:19:45;;;;;;;;;;;20.40;39.80;;;;;;490836;240;2191;-71
2020/12/17 09:21:47;;;;;;;;;;;20.40;39.70;;;;;;490819;240;1053;-71
2020/12/17 09:23:48;;;;;;;;;;;20.40;39.80;;;;;;490675;240;1068;-71
2020/12/17 09:25:49;;;;;;;;;;;20.50;39.80;;;;;;490834;240;1364;-70
2020/12/17 09:27:51;;;;;;;;;;;20.50;39.80;;;;;;490984;240;1093;-70
2020/12/17 09:29:52;;;;;;;;;;;20.50;39.70;;;;;;490992;240;1267;-70
2020/12/17 09:31:53;;;;;;;;;;;20.40;39.90;;;;;;491044;240;1124;-71
2020/12/17 09:33:54;;;;;;;;;;;20.40;39.80;;;;;;490940;240;1071;-71
2020/12/17 09:35:56;;;;;;;;;;;20.50;39.70;;;;;;490845;240;1277;-71
2020/12/17 09:37:57;;;;;;;;;;;20.50;39.70;;;;;;490979;240;1059;-71
2020/12/17 09:39:58;;;;;;;;;;;20.40;39.70;;;;;;490982;240;2199;-70
2020/12/17 09:41:59;;;;;;;;;;;20.40;39.90;;;;;;491057;240;1045;-70
2020/12/17 09:44:01;;;;;;;;;;;20.40;39.90;;;;;;490893;240;1169;-70
2020/12/17 09:46:02;;;;;;;;;;;20.40;39.70;;;;;;490913;240;1027;-70
2020/12/17 09:48:04;;;;;;;;;;;20.40;39.90;;;;;;490859;240;1289;-70
2020/12/17 09:50:05;;;;;;;;;;;20.40;39.90;;;;;;490915;240;1062;-70
2020/12/17 09:52:06;;;;;;;;;;;20.40;39.90;;;;;;490967;240;999;-70
2020/12/17 09:54:09;;;;;;;;;;;20.40;40.00;;;;;;490905;240;1239;-70
2020/12/17 09:56:10;;;;;;;;;;;20.30;40.00;;;;;;491081;240;1486;-71
2020/12/17 09:58:11;;;;;;;;;;;20.40;40.00;;;;;;490892;240;1044;-70
2020/12/17 10:00:12;;;;;;;;;;;20.40;40.00;;;;;;490942;241;2141;-71
2020/12/17 10:02:14;;;;;;;;;;;20.40;39.90;;;;;;490960;240;1157;-71
2020/12/17 10:04:15;;;;;;;;;;;20.30;39.90;;;;;;490989;240;1189;-70
2020/12/17 10:06:16;;;;;;;;;;;20.40;40.00;;;;;;490947;240;1050;-71
2020/12/17 10:08:18;;;;;;;;;;;20.40;39.50;;;;;;491011;240;1040;-70
2020/12/17 10:10:20;;;;;;;;;;;20.40;39.90;;;;;;490800;240;1086;-70
2020/12/17 10:12:20;;;;;;;;;;;20.40;40.00;;;;;;490857;240;1439;-70
2020/12/17 10:14:21;;;;;;;;;;;20.40;40.20;;;;;;490740;240;1188;-70
2020/12/17 10:16:23;;;;;;;;;;;20.30;40.20;;;;;;490937;240;1085;-70
2020/12/17 10:18:24;;;;;;;;;;;20.30;40.30;;;;;;490939;240;1119;-70
2020/12/17 10:20:25;;;;;;;;;;;20.30;40.20;;;;;;491016;240;2187;-70
2020/12/17 10:22:26;;;;;;;;;;;20.20;40.30;;;;;;490947;240;1175;-70
2020/12/17 10:24:28;;;;;;;;;;;20.30;40.30;;;;;;490893;240;1009;-70
2020/12/17 10:26:29;;;;;;;;;;;20.30;40.30;;;;;;490890;240;1020;-70
2020/12/17 10:28:31;;;;;;;;;;;20.30;40.10;;;;;;490848;240;1047;-70
2020/12/17 10:30:32;;;;;;;;;;;20.30;40.20;;;;;;490977;240;1058;-71
2020/12/17 10:32:33;;;;;;;;;;;20.30;40.20;;;;;;490834;240;1171;-70
2020/12/17 10:34:34;;;;;;;;;;;20.30;40.20;;;;;;490788;240;1003;-71
2020/12/17 10:36:36;;;;;;;;;;;20.30;40.10;;;;;;490772;240;1295;-71
2020/12/17 10:38:37;;;;;;;;;;;20.30;40.20;;;;;;490913;240;1010;-70
2020/12/17 10:40:38;;;;;;;;;;;20.30;40.10;;;;;;490993;240;2188;-71
2020/12/17 10:42:40;;;;;;;;;;;20.30;40.20;;;;;;491018;240;1059;-70
2020/12/17 10:44:41;;;;;;;;;;;20.30;40.10;;;;;;490969;240;977;-71
2020/12/17 10:46:42;;;;;;;;;;;20.20;40.20;;;;;;490915;240;1216;-70
2020/12/17 10:48:44;;;;;;;;;;;20.20;40.20;;;;;;490954;240;1072;-70
2020/12/17 10:50:47;;;;;;;;;;;20.20;40.10;;;;;;491009;240;1159;-71
2020/12/17 10:52:46;;;;;;;;;;;20.20;40.10;;;;;;490886;242;1619;-71
2020/12/17 10:54:47;;;;;;;;;;;20.20;40.00;;;;;;490808;240;1077;-70
2020/12/17 10:56:49;;;;;;;;;;;20.20;39.80;;;;;;490690;240;1196;-72
2020/12/17 10:58:51;;;;;;;;;;;20.20;40.00;;;;;;490743;240;1055;-72
2020/12/17 11:00:51;;;;;;;;;;;20.20;39.80;;;;;;490773;240;2192;-70
2020/12/17 11:02:53;;;;;;;;;;;20.20;40.00;;;;;;490802;240;1171;-70
2020/12/17 11:04:54;;;;;;;;;;;20.20;39.90;;;;;;491020;240;1037;-70
2020/12/17 11:06:55;;;;;;;;;;;20.20;39.80;;;;;;490920;240;996;-70
2020/12/17 11:08:56;;;;;;;;;;;20.20;39.80;;;;;;490993;240;1103;-70
2020/12/17 11:10:58;;;;;;;;;;;20.20;39.70;;;;;;490924;240;1033;-70
2020/12/17 11:12:59;;;;;;;;;;;20.20;39.80;;;;;;490823;240;1010;-70
2020/12/17 11:15:00;;;;;;;;;;;20.20;39.80;;;;;;490813;240;1025;-70
2020/12/17 11:17:03;;;;;;;;;;;20.30;39.60;;;;;;490723;240;1076;-70
2020/12/17 11:19:03;;;;;;;;;;;20.20;39.50;;;;;;490821;240;1237;-70
2020/12/17 11:21:04;;;;;;;;;;;20.20;39.50;;;;;;490739;240;2188;-70
2020/12/17 11:23:05;;;;;;;;;;;20.20;39.50;;;;;;490944;240;1185;-70
2020/12/17 11:25:06;;;;;;;;;;;20.20;39.20;;;;;;490919;240;1010;-70
2020/12/17 11:27:08;;;;;;;;;;;20.20;39.50;;;;;;490606;240;1110;-70
2020/12/17 11:29:09;;;;;;;;;;;20.30;39.70;;;;;;490853;240;1087;-70
2020/12/17 11:31:10;;;;;;;;;;;20.20;39.70;;;;;;490916;240;1114;-70
2020/12/17 11:33:12;;;;;;;;;;;20.30;39.80;;;;;;490774;240;1156;-70
2020/12/17 11:35:13;;;;;;;;;;;20.30;39.80;;;;;;490912;240;1063;-70
2020/12/17 11:37:14;;;;;;;;;;;20.30;39.90;;;;;;490792;240;1156;-70
2020/12/17 11:39:15;;;;;;;;;;;20.30;40.00;;;;;;490906;240;1052;-70
2020/12/17 11:41:17;;;;;;;;;;;20.30;40.00;;;;;;490912;240;2184;-70
2020/12/17 11:43:18;;;;;;;;;;;20.20;40.10;;;;;;490813;240;1077;-70
2020/12/17 11:45:19;;;;;;;;;;;20.20;40.20;;;;;;490915;240;1124;-70
2020/12/17 11:47:21;;;;;;;;;;;20.20;40.20;;;;;;490884;240;1149;-70
2020/12/17 11:49:22;;;;;;;;;;;20.20;40.40;;;;;;490810;240;1225;-70
2020/12/17 11:51:23;;;;;;;;;;;20.20;40.50;;;;;;490782;240;1181;-70
2020/12/17 11:53:25;;;;;;;;;;;20.20;40.50;;;;;;490796;240;1017;-70
2020/12/17 11:55:26;;;;;;;;;;;20.30;40.50;;;;;;490820;240;1162;-70
2020/12/17 11:57:27;;;;;;;;;;;20.30;40.40;;;;;;491150;240;1168;-71
2020/12/17 11:59:29;;;;;;;;;;;20.30;40.60;;;;;;490688;240;1045;-70